Time;durP1;ratioP1;P1;durP2;ratioP2;P2;SDS_P1;SDS_P2;PMS_P1;PMS_P2;Temp;Humidity;BMP_temperature;BMP_pressure;BME280_temperature;BME280_humidity;BME280_pressure;Samples;Min_cycle;Max_cycle;Signal;HPM_P1;HPM_P2
2024/01/24 00:01:58;;;;;;;6.47;6.28;;;;;;;-145.48;100.00;64539.38;6280113;28;20106;-89
2024/01/24 00:05:00;;;;;;;6.75;6.55;;;;;;;-145.48;100.00;64539.38;6288111;28;20036;-89
2024/01/24 00:08:02;;;;;;;7.18;6.88;;;;;;;-145.48;100.00;64539.38;6278610;28;20040;-89
2024/01/24 00:11:06;;;;;;;7.75;7.45;;;;;;;-145.48;100.00;64539.38;6272950;28;20186;-89
2024/01/24 00:14:09;;;;;;;7.22;7.03;;;;;;;-145.48;100.00;64539.38;6282976;28;20384;-89
2024/01/24 00:17:10;;;;;;;7.15;6.95;;;;;;;-145.48;100.00;64539.38;6274273;28;20306;-90
2024/01/24 00:20:13;;;;;;;6.97;6.78;;;;;;;-145.48;100.00;64539.38;6281868;28;20036;-90
2024/01/24 00:23:15;;;;;;;7.20;7.00;;;;;;;-145.48;100.00;64539.38;6279391;28;20041;-90
2024/01/24 00:26:17;;;;;;;6.82;6.63;;;;;;;-145.48;100.00;64539.38;6284621;28;20612;-90
2024/01/24 00:29:19;;;;;;;7.07;6.88;;;;;;;-145.48;100.00;64539.38;6282604;28;20045;-91
2024/01/24 00:32:21;;;;;;;6.57;6.38;;;;;;;-145.48;100.00;64539.38;6282944;28;20052;-90
2024/01/24 00:35:24;;;;;;;6.10;5.90;;;;;;;-145.48;100.00;64539.38;6278557;28;20039;-92
2024/01/24 00:38:26;;;;;;;6.50;6.30;;;;;;;-145.48;100.00;64539.38;6279218;28;20520;-91
2024/01/24 00:41:28;;;;;;;7.25;7.05;;;;;;;-145.48;100.00;64539.38;6283350;28;20110;-91
2024/01/24 00:44:30;;;;;;;7.03;6.82;;;;;;;-145.48;100.00;64539.38;6289978;28;20165;-92
2024/01/24 00:47:33;;;;;;;6.68;6.47;;;;;;;-145.48;100.00;64539.38;6285356;28;20036;-92
2024/01/24 00:50:35;;;;;;;6.35;6.15;;;;;;;-145.48;100.00;64539.38;6279082;28;20093;-91
2024/01/24 00:53:37;;;;;;;7.00;6.63;;;;;;;-145.48;100.00;64539.38;6278826;28;20055;-92
2024/01/24 00:56:40;;;;;;;6.55;6.35;;;;;;;-145.48;100.00;64539.38;6274604;28;20044;-91
2024/01/24 00:59:44;;;;;;;6.50;6.30;;;;;;;-145.48;100.00;64539.38;6286474;28;20181;-92
2024/01/24 01:02:46;;;;;;;7.28;7.07;;;;;;;-145.48;100.00;64539.38;6272970;28;20071;-93
2024/01/24 01:05:48;;;;;;;6.75;6.55;;;;;;;-145.48;100.00;64539.38;6286094;28;20538;-92
2024/01/24 01:08:51;;;;;;;6.85;6.55;;;;;;;-145.48;100.00;64539.38;6279679;28;20044;-91
2024/01/24 01:11:53;;;;;;;6.93;6.72;;;;;;;-145.48;100.00;64539.38;6283588;28;20040;-92
2024/01/24 01:14:55;;;;;;;6.63;6.43;;;;;;;-145.48;100.00;64539.38;6280297;28;20035;-92
2024/01/24 01:17:57;;;;;;;7.10;6.80;;;;;;;-145.48;100.00;64539.38;6271605;28;20037;-92
2024/01/24 01:21:00;;;;;;;6.43;6.22;;;;;;;-145.48;100.00;64539.38;6278758;28;20040;-93
2024/01/24 01:24:02;;;;;;;7.32;6.88;;;;;;;-145.48;100.00;64539.38;6283303;28;20126;-93
2024/01/24 01:27:04;;;;;;;6.38;6.18;;;;;;;-145.48;100.00;64539.38;6284281;28;20395;-92
2024/01/24 01:30:07;;;;;;;6.75;6.55;;;;;;;-145.48;100.00;64539.38;6285518;28;20033;-92
2024/01/24 01:33:09;;;;;;;6.45;6.25;;;;;;;-145.48;100.00;64539.38;6284316;28;20082;-92
2024/01/24 01:36:12;;;;;;;8.05;7.68;;;;;;;-145.48;100.00;64539.38;6281320;28;20525;-93
2024/01/24 01:39:24;;;;;;;6.78;6.57;;;;;;;-145.48;100.00;64539.38;6288183;28;20037;-93
2024/01/24 01:42:26;;;;;;;7.07;6.88;;;;;;;-145.48;100.00;64539.38;6267560;28;20049;-94
2024/01/24 01:45:28;;;;;;;6.18;5.97;;;;;;;-145.48;100.00;64539.38;6282151;28;20441;-94
2024/01/24 01:48:32;;;;;;;6.90;6.70;;;;;;;-145.48;100.00;64539.38;6279090;28;20120;-93
2024/01/24 01:51:35;;;;;;;7.50;7.10;;;;;;;-145.48;100.00;64539.38;6279281;28;20504;-93
2024/01/24 01:54:41;;;;;;;6.32;6.13;;;;;;;-145.48;100.00;64539.38;6282258;28;20129;-93
2024/01/24 01:57:44;;;;;;;6.43;6.13;;;;;;;-145.48;100.00;64539.38;6279123;28;20044;-93
2024/01/24 02:00:50;;;;;;;7.15;6.95;;;;;;;-145.48;100.00;64539.38;6282936;28;20491;-93
2024/01/24 02:03:52;;;;;;;6.75;6.53;;;;;;;-145.48;100.00;64539.38;6281563;28;20048;-93
2024/01/24 02:07:00;;;;;;;8.90;6.68;;;;;;;-145.48;100.00;64539.38;6282895;28;20036;-93
2024/01/24 02:10:02;;;;;;;7.18;6.93;;;;;;;-145.48;100.00;64539.38;6286072;28;20037;-93
2024/01/24 02:13:05;;;;;;;6.55;6.35;;;;;;;-145.48;100.00;64539.38;6282800;28;20056;-92
2024/01/24 02:16:09;;;;;;;6.85;6.65;;;;;;;-145.48;100.00;64539.38;6281133;28;20043;-92
2024/01/24 02:19:11;;;;;;;8.18;7.70;;;;;;;-145.48;100.00;64539.38;6280540;28;20047;-93
2024/01/24 02:22:14;;;;;;;8.18;7.80;;;;;;;-145.48;100.00;64539.38;6279778;28;20040;-93
2024/01/24 02:25:17;;;;;;;6.82;6.35;;;;;;;-145.48;100.00;64539.38;6265984;28;20475;-93
2024/01/24 02:28:20;;;;;;;7.65;7.40;;;;;;;-145.48;100.00;64539.38;6287009;28;20118;-93
2024/01/24 02:31:22;;;;;;;6.47;6.28;;;;;;;-145.48;100.00;64539.38;6268601;28;20037;-89
2024/01/24 02:34:24;;;;;;;9.40;9.05;;;;;;;-145.48;100.00;64539.38;6285704;28;20151;-90
2024/01/24 02:37:26;;;;;;;6.72;6.53;;;;;;;-145.48;100.00;64539.38;6276047;28;20142;-89
2024/01/24 02:40:29;;;;;;;8.05;7.75;;;;;;;-145.48;100.00;64539.38;6284190;28;20487;-90
2024/01/24 02:43:31;;;;;;;6.60;6.40;;;;;;;-145.48;100.00;64539.38;6271423;28;20120;-92
2024/01/24 02:46:33;;;;;;;6.80;6.60;;;;;;;-145.48;100.00;64539.38;6281635;28;20402;-90
2024/01/24 02:49:35;;;;;;;7.15;6.95;;;;;;;-145.48;100.00;64539.38;6282488;28;20040;-94
2024/01/24 02:52:39;;;;;;;6.78;6.57;;;;;;;-145.48;100.00;64539.38;6285459;28;20048;-91
2024/01/24 02:55:42;;;;;;;7.80;7.55;;;;;;;-145.48;100.00;64539.38;6262320;28;20036;-90
2024/01/24 02:58:45;;;;;;;7.43;7.13;;;;;;;-145.48;100.00;64539.38;6266124;28;20392;-90
2024/01/24 03:01:47;;;;;;;7.07;6.88;;;;;;;-145.48;100.00;64539.38;6280590;28;20524;-89
2024/01/24 03:04:49;;;;;;;7.32;7.13;;;;;;;-145.48;100.00;64539.38;6280155;28;20049;-89
2024/01/24 03:07:51;;;;;;;8.27;7.95;;;;;;;-145.48;100.00;64539.38;6290705;28;20041;-89
2024/01/24 03:10:54;;;;;;;6.43;6.22;;;;;;;-145.48;100.00;64539.38;6284460;28;20407;-88
2024/01/24 03:13:55;;;;;;;6.80;6.60;;;;;;;-145.48;100.00;64539.38;6273988;28;20048;-88
2024/01/24 03:16:58;;;;;;;6.60;6.40;;;;;;;-145.48;100.00;64539.38;6284488;28;20040;-88
2024/01/24 03:20:03;;;;;;;7.40;7.00;;;;;;;-145.48;100.00;64539.38;6277984;28;20047;-88
2024/01/24 03:23:05;;;;;;;6.35;6.15;;;;;;;-145.48;100.00;64539.38;6276908;28;20079;-88
2024/01/24 03:26:08;;;;;;;7.10;6.90;;;;;;;-145.48;100.00;64539.38;6280200;28;20502;-88
2024/01/24 03:29:10;;;;;;;7.07;6.88;;;;;;;-145.48;100.00;64539.38;6279462;28;20313;-88
2024/01/24 03:32:12;;;;;;;6.60;6.40;;;;;;;-145.48;100.00;64539.38;6269249;28;20194;-88
2024/01/24 03:35:14;;;;;;;7.97;7.68;;;;;;;-145.48;100.00;64539.38;6273599;28;20048;-88
2024/01/24 03:38:16;;;;;;;7.50;7.22;;;;;;;-145.48;100.00;64539.38;6272931;28;20506;-87
2024/01/24 03:41:18;;;;;;;6.80;6.60;;;;;;;-145.48;100.00;64539.38;6259301;28;20483;-88
2024/01/24 03:44:20;;;;;;;7.93;7.63;;;;;;;-145.48;100.00;64539.38;6276697;28;20071;-88
2024/01/24 03:47:22;;;;;;;7.97;7.68;;;;;;;-145.48;100.00;64539.38;6261376;28;20079;-88
2024/01/24 03:50:24;;;;;;;8.23;7.82;;;;;;;-145.48;100.00;64539.38;6281574;28;20040;-88
2024/01/24 03:53:26;;;;;;;7.68;7.47;;;;;;;-145.48;100.00;64539.38;6280531;28;20044;-89
2024/01/24 03:56:28;;;;;;;7.65;7.43;;;;;;;-145.48;100.00;64539.38;6296387;28;20041;-88
2024/01/24 03:59:30;;;;;;;8.35;8.05;;;;;;;-145.48;100.00;64539.38;6283356;28;20517;-89
2024/01/24 04:02:32;;;;;;;7.43;7.22;;;;;;;-145.48;100.00;64539.38;6283294;28;20029;-89
2024/01/24 04:05:34;;;;;;;8.15;7.75;;;;;;;-145.48;100.00;64539.38;6285175;28;20058;-90
2024/01/24 04:08:36;;;;;;;7.75;7.35;;;;;;;-145.48;100.00;64539.38;6276209;28;20711;-87
2024/01/24 04:11:38;;;;;;;7.22;7.03;;;;;;;-145.48;100.00;64539.38;6275568;28;20037;-87
2024/01/24 04:14:43;;;;;;;12.65;12.25;;;;;;;-145.48;100.00;64539.38;6282682;28;20063;-86
2024/01/24 04:17:45;;;;;;;8.80;8.50;;;;;;;-145.48;100.00;64539.38;6284361;28;20098;-87
2024/01/24 04:20:48;;;;;;;8.52;8.23;;;;;;;-145.48;100.00;64539.38;6277529;28;20037;-87
2024/01/24 04:23:50;;;;;;;9.20;8.90;;;;;;;-145.48;100.00;64539.38;6284479;28;20048;-92
2024/01/24 04:26:52;;;;;;;8.70;8.18;;;;;;;-145.48;100.00;64539.38;6275928;28;20043;-93
2024/01/24 04:29:54;;;;;;;7.40;7.20;;;;;;;-145.48;100.00;64539.38;6275788;28;20041;-90
2024/01/24 04:32:57;;;;;;;7.82;7.53;;;;;;;-145.48;100.00;64539.38;6279800;28;20080;-89
2024/01/24 04:35:59;;;;;;;7.95;7.72;;;;;;;-145.48;100.00;64539.38;6281660;28;20048;-88
2024/01/24 04:39:01;;;;;;;9.82;9.52;;;;;;;-145.48;100.00;64539.38;6284173;28;20037;-91
2024/01/24 04:42:04;;;;;;;7.60;7.30;;;;;;;-145.48;100.00;64539.38;6283577;28;20477;-95
2024/01/24 04:45:17;;;;;;;7.10;6.90;;;;;;;-145.48;100.00;64539.38;6277251;28;20544;-91
2024/01/24 04:48:19;;;;;;;6.70;6.50;;;;;;;-145.48;100.00;64539.38;6279319;28;20093;-90
2024/01/24 04:51:24;;;;;;;7.68;7.40;;;;;;;-145.48;100.00;64539.38;6280112;28;20037;-88
2024/01/24 04:54:26;;;;;;;7.63;7.43;;;;;;;-145.48;100.00;64539.38;6277230;28;20165;-89
2024/01/24 04:57:28;;;;;;;7.22;7.03;;;;;;;-145.48;100.00;64539.38;6283208;28;20025;-88
2024/01/24 05:00:30;;;;;;;8.32;8.02;;;;;;;-145.48;100.00;64539.38;6281671;28;20032;-87
2024/01/24 05:03:32;;;;;;;10.23;9.93;;;;;;;-145.48;100.00;64539.38;6282318;28;20540;-87
2024/01/24 05:06:35;;;;;;;9.10;8.80;;;;;;;-145.48;100.00;64539.38;6288073;28;20086;-86
2024/01/24 05:09:40;;;;;;;8.85;8.55;;;;;;;-145.48;100.00;64539.38;6292264;28;20047;-87
2024/01/24 05:12:42;;;;;;;10.35;10.05;;;;;;;-145.48;100.00;64539.38;6281826;28;20048;-86
2024/01/24 05:15:44;;;;;;;8.10;7.57;;;;;;;-145.48;100.00;64539.38;6280667;28;20050;-86
2024/01/24 05:18:46;;;;;;;8.45;8.15;;;;;;;-145.48;100.00;64539.38;6283079;28;20534;-86
2024/01/24 05:21:48;;;;;;;7.55;7.25;;;;;;;-145.48;100.00;64539.38;6281189;28;20049;-87
2024/01/24 05:24:50;;;;;;;7.10;6.90;;;;;;;-145.48;100.00;64539.38;6289608;28;20036;-88
2024/01/24 05:27:53;;;;;;;7.75;7.55;;;;;;;-145.48;100.00;64539.38;6277455;28;20044;-89
2024/01/24 05:30:55;;;;;;;11.25;10.85;;;;;;;-145.48;100.00;64539.38;6275552;28;20039;-92
2024/01/24 05:33:57;;;;;;;8.55;8.25;;;;;;;-145.48;100.00;64539.38;6282646;28;20044;-91
2024/01/24 05:36:59;;;;;;;8.82;8.52;;;;;;;-145.48;100.00;64539.38;6288341;28;20194;-90
2024/01/24 05:40:02;;;;;;;7.82;7.53;;;;;;;-145.48;100.00;64539.38;6281728;28;20068;-89
2024/01/24 05:43:04;;;;;;;9.30;9.00;;;;;;;-145.48;100.00;64539.38;6279557;28;20232;-89
2024/01/24 05:46:06;;;;;;;8.77;8.48;;;;;;;-145.48;100.00;64539.38;6282565;28;20044;-88
2024/01/24 05:49:08;;;;;;;7.13;6.90;;;;;;;-145.48;100.00;64539.38;6288632;28;20219;-91
2024/01/24 05:52:10;;;;;;;8.45;8.15;;;;;;;-145.48;100.00;64539.38;6285236;28;20064;-91
2024/01/24 05:55:13;;;;;;;10.10;9.40;;;;;;;-145.48;100.00;64539.38;6285505;28;20097;-88
2024/01/24 05:58:15;;;;;;;8.05;7.78;;;;;;;-145.48;100.00;64539.38;6269758;28;20045;-88
2024/01/24 06:01:17;;;;;;;8.25;7.88;;;;;;;-145.48;100.00;64539.38;6279725;28;20044;-88
2024/01/24 06:04:19;;;;;;;7.55;7.10;;;;;;;-145.48;100.00;64539.38;6275577;28;20074;-88
2024/01/24 06:07:22;;;;;;;8.07;7.82;;;;;;;-145.48;100.00;64539.38;6283224;28;20044;-89
2024/01/24 06:10:24;;;;;;;7.95;7.65;;;;;;;-145.48;100.00;64539.38;6264358;28;20067;-90
2024/01/24 06:13:27;;;;;;;6.63;6.43;;;;;;;-145.48;100.00;64539.38;6281084;28;20045;-89
2024/01/24 06:16:29;;;;;;;7.22;7.03;;;;;;;-145.48;100.00;64539.38;6280250;28;20036;-90
2024/01/24 06:19:31;;;;;;;16.98;11.82;;;;;;;-145.48;100.00;64539.38;6282184;28;20147;-89
2024/01/24 06:22:32;;;;;;;6.80;6.60;;;;;;;-145.48;100.00;64539.38;6282818;28;20040;-87
2024/01/24 06:25:35;;;;;;;11.43;10.80;;;;;;;-145.48;100.00;64539.38;6274933;28;20500;-87
2024/01/24 06:28:37;;;;;;;16.83;16.13;;;;;;;-145.48;100.00;64539.38;6283079;28;20141;-89
2024/01/24 06:31:39;;;;;;;14.68;14.18;;;;;;;-145.48;100.00;64539.38;6278552;28;20517;-90
2024/01/24 06:34:41;;;;;;;18.23;17.63;;;;;;;-145.48;100.00;64539.38;6284644;28;20053;-88
2024/01/24 06:37:43;;;;;;;24.13;23.23;;;;;;;-145.48;100.00;64539.38;6268914;28;20059;-89
2024/01/24 06:40:49;;;;;;;8.50;8.20;;;;;;;-145.48;100.00;64539.38;6278320;28;20414;-88
2024/01/24 06:43:52;;;;;;;8.05;7.75;;;;;;;-145.48;100.00;64539.38;6280368;28;20048;-89
2024/01/24 06:46:56;;;;;;;7.68;7.38;;;;;;;-145.48;100.00;64539.38;6273528;28;20071;-86
2024/01/24 06:49:58;;;;;;;7.40;7.10;;;;;;;-145.48;100.00;64539.38;6281915;28;20050;-86
2024/01/24 06:53:00;;;;;;;8.07;7.47;;;;;;;-145.48;100.00;64539.38;6278477;28;20105;-87
2024/01/24 06:56:02;;;;;;;14.07;7.85;;;;;;;-145.48;100.00;64539.38;6273001;28;20052;-88
2024/01/24 06:59:04;;;;;;;15.82;15.27;;;;;;;-145.48;100.00;64539.38;6287288;28;20041;-88
2024/01/24 07:02:06;;;;;;;6.65;6.25;;;;;;;-145.48;100.00;64539.38;6277521;28;20491;-89
2024/01/24 07:05:08;;;;;;;8.20;7.43;;;;;;;-145.48;100.00;64539.38;6287524;28;20041;-89
2024/01/24 07:08:13;;;;;;;6.90;6.47;;;;;;;-145.48;100.00;64539.38;6280323;28;20036;-89
2024/01/24 07:11:15;;;;;;;6.32;6.00;;;;;;;-145.48;100.00;64539.38;6284465;28;20111;-90
2024/01/24 07:14:17;;;;;;;6.28;6.07;;;;;;;-145.48;100.00;64539.38;6282884;28;20185;-90
2024/01/24 07:17:20;;;;;;;8.73;8.13;;;;;;;-145.48;100.00;64539.38;6287721;28;20119;-92
2024/01/24 07:20:22;;;;;;;9.10;7.93;;;;;;;-145.48;100.00;64539.38;6282916;28;20079;-89
2024/01/24 07:23:25;;;;;;;6.57;6.13;;;;;;;-145.48;100.00;64539.38;6276956;28;20082;-88
2024/01/24 07:26:28;;;;;;;8.02;7.63;;;;;;;-145.48;100.00;64539.38;6282911;28;20388;-86
2024/01/24 07:29:30;;;;;;;8.13;7.72;;;;;;;-145.48;100.00;64539.38;6283044;28;20063;-86
2024/01/24 07:32:32;;;;;;;9.23;8.65;;;;;;;-145.48;100.00;64539.38;6278082;28;20032;-86
2024/01/24 07:35:34;;;;;;;10.32;6.97;;;;;;;-145.48;100.00;64539.38;6281453;28;20047;-86
2024/01/24 07:38:37;;;;;;;8.63;8.13;;;;;;;-145.48;100.00;64539.38;6278070;28;20483;-86
2024/01/24 07:41:40;;;;;;;14.27;7.63;;;;;;;-145.48;100.00;64539.38;6278665;28;20047;-87
2024/01/24 07:44:42;;;;;;;8.20;7.90;;;;;;;-145.48;100.00;64539.38;6273311;28;20072;-86
2024/01/24 07:47:47;;;;;;;7.88;7.47;;;;;;;-145.48;100.00;64539.38;6284566;28;20048;-87
2024/01/24 07:50:49;;;;;;;10.27;9.88;;;;;;;-145.48;100.00;64539.38;6275189;28;20358;-87
2024/01/24 07:53:52;;;;;;;8.02;7.30;;;;;;;-145.48;100.00;64539.38;6288822;28;20701;-86
2024/01/24 07:56:54;;;;;;;7.65;7.28;;;;;;;-145.48;100.00;64539.38;6282505;28;20087;-86
2024/01/24 07:59:56;;;;;;;6.38;6.18;;;;;;;-145.48;100.00;64539.38;6282556;28;20415;-85
2024/01/24 08:02:58;;;;;;;8.77;8.27;;;;;;;-145.48;100.00;64539.38;6287285;28;20040;-86
2024/01/24 08:06:01;;;;;;;7.78;7.47;;;;;;;-145.48;100.00;64539.38;6288060;28;20051;-87
2024/01/24 08:09:04;;;;;;;6.60;6.15;;;;;;;-145.48;100.00;64539.38;6289250;28;20083;-89
2024/01/24 08:12:11;;;;;;;6.65;6.38;;;;;;;-145.48;100.00;64539.38;6284394;28;20036;-90
2024/01/24 08:15:14;;;;;;;6.78;6.47;;;;;;;-145.48;100.00;64539.38;6278289;28;20051;-93
2024/01/24 08:18:16;;;;;;;8.48;6.43;;;;;;;-145.48;100.00;64539.38;6277149;28;20052;-91
2024/01/24 08:21:18;;;;;;;7.28;6.75;;;;;;;-145.48;100.00;64539.38;6283895;28;20141;-93
2024/01/24 08:24:21;;;;;;;7.55;6.65;;;;;;;-145.48;100.00;64539.38;6280633;28;20095;-94
2024/01/24 08:27:23;;;;;;;6.75;6.45;;;;;;;-145.48;100.00;64539.38;6288172;28;20046;-94
2024/01/24 08:30:25;;;;;;;7.65;7.07;;;;;;;-145.48;100.00;64539.38;6285768;28;20155;-94
2024/01/24 08:33:27;;;;;;;17.45;6.47;;;;;;;-145.48;100.00;64539.38;6289358;28;20045;-94
2024/01/24 08:36:29;;;;;;;6.40;6.00;;;;;;;-145.48;100.00;64539.38;6287961;28;20449;-94
2024/01/24 08:39:32;;;;;;;9.23;8.20;;;;;;;-145.48;100.00;64539.38;6288215;28;20487;-92
2024/01/24 08:42:35;;;;;;;8.43;7.65;;;;;;;-145.48;100.00;64539.38;6281871;28;20045;-92
2024/01/24 08:45:36;;;;;;;7.20;6.80;;;;;;;-145.48;100.00;64539.38;6283182;28;20036;-91
2024/01/24 08:48:39;;;;;;;7.47;6.85;;;;;;;-145.48;100.00;64539.38;6282440;28;20453;-92
2024/01/24 08:51:41;;;;;;;5.93;5.70;;;;;;;-145.48;100.00;64539.38;6280518;28;20060;-92
2024/01/24 08:54:44;;;;;;;6.55;6.35;;;;;;;-145.48;100.00;64539.38;6283862;28;20131;-92
2024/01/24 08:57:47;;;;;;;13.02;7.03;;;;;;;-145.48;100.00;64539.38;6295039;28;20032;-91
2024/01/24 09:00:50;;;;;;;7.57;6.10;;;;;;;-145.48;100.00;64539.38;6287904;28;20029;-92
2024/01/24 09:03:53;;;;;;;6.72;6.43;;;;;;;-145.48;100.00;64539.38;6285747;28;20044;-92
2024/01/24 09:06:56;;;;;;;7.25;6.60;;;;;;;-145.48;100.00;64539.38;6284647;28;20406;-90
2024/01/24 09:09:58;;;;;;;7.03;6.25;;;;;;;-145.48;100.00;64539.38;6280557;28;20545;-92
2024/01/24 09:13:00;;;;;;;6.95;6.65;;;;;;;-145.48;100.00;64539.38;6290361;28;20052;-92
2024/01/24 09:16:02;;;;;;;6.07;5.88;;;;;;;-145.48;100.00;64539.38;6281828;28;20040;-91
2024/01/24 09:19:05;;;;;;;6.75;6.40;;;;;;;-145.48;100.00;64539.38;6288059;28;20043;-92
2024/01/24 09:22:09;;;;;;;7.15;6.75;;;;;;;-145.48;100.00;64539.38;6279628;28;20041;-91
2024/01/24 09:25:11;;;;;;;8.25;7.55;;;;;;;-145.48;100.00;64539.38;6283367;28;20040;-92
2024/01/24 09:28:15;;;;;;;6.32;5.93;;;;;;;-145.48;100.00;64539.38;6277339;28;20042;-93
2024/01/24 09:31:17;;;;;;;5.97;5.78;;;;;;;-145.48;100.00;64539.38;6277751;28;20064;-92
2024/01/24 09:34:19;;;;;;;7.65;7.00;;;;;;;-145.48;100.00;64539.38;6282214;28;20060;-92
2024/01/24 09:37:21;;;;;;;7.65;6.85;;;;;;;-145.48;100.00;64539.38;6293485;28;20186;-92
2024/01/24 09:40:24;;;;;;;6.90;6.60;;;;;;;-145.48;100.00;64539.38;6281581;28;20114;-92
2024/01/24 09:43:32;;;;;;;9.00;6.57;;;;;;;-145.48;100.00;64539.38;6264407;28;20040;-92
2024/01/24 09:46:40;;;;;;;12.40;7.97;;;;;;;-145.48;100.00;64539.38;6291978;28;20052;-92
2024/01/24 09:49:43;;;;;;;6.80;6.50;;;;;;;-145.48;100.00;64539.38;6280316;28;20048;-93
2024/01/24 09:52:46;;;;;;;7.45;6.80;;;;;;;-145.48;100.00;64539.38;6286924;28;20510;-92
2024/01/24 09:55:50;;;;;;;6.28;5.88;;;;;;;-145.48;100.00;64539.38;6282329;28;20099;-91
2024/01/24 09:58:52;;;;;;;8.25;7.57;;;;;;;-145.48;100.00;64539.38;6278135;28;20123;-93
2024/01/24 10:01:54;;;;;;;7.57;6.80;;;;;;;-145.48;100.00;64539.38;6288414;28;20055;-91
2024/01/24 10:04:58;;;;;;;20.92;7.35;;;;;;;-145.48;100.00;64539.38;6276731;28;20079;-93
2024/01/24 10:08:00;;;;;;;7.75;6.75;;;;;;;-145.48;100.00;64539.38;6287705;28;20039;-91
2024/01/24 10:11:02;;;;;;;6.68;6.45;;;;;;;-145.48;100.00;64539.38;6282794;28;20039;-92
2024/01/24 10:14:05;;;;;;;6.32;6.07;;;;;;;-145.48;100.00;64539.38;6290860;28;20156;-93
2024/01/24 10:17:15;;;;;;;7.78;7.47;;;;;;;-145.48;100.00;64539.38;6292110;28;20097;-91
2024/01/24 10:20:17;;;;;;;7.07;6.25;;;;;;;-145.48;100.00;64539.38;6296202;28;20401;-93
2024/01/24 10:23:19;;;;;;;34.67;9.23;;;;;;;-145.48;100.00;64539.38;6290607;28;20040;-93
2024/01/24 10:26:21;;;;;;;8.18;7.63;;;;;;;-145.48;100.00;64539.38;6281928;28;20041;-92
2024/01/24 10:29:23;;;;;;;6.40;5.88;;;;;;;-145.48;100.00;64539.38;6288062;28;20601;-93
2024/01/24 10:32:26;;;;;;;6.82;6.53;;;;;;;-145.48;100.00;64539.38;6287178;28;20032;-92
2024/01/24 10:35:29;;;;;;;6.90;6.60;;;;;;;-145.48;100.00;64539.38;6282265;28;20576;-91
2024/01/24 10:38:32;;;;;;;6.57;6.38;;;;;;;-145.48;100.00;64539.38;6285140;28;20060;-93
2024/01/24 10:41:43;;;;;;;12.93;8.32;;;;;;;-145.48;100.00;64539.38;6283135;28;20162;-92
2024/01/24 10:44:49;;;;;;;7.55;7.15;;;;;;;-145.48;100.00;64539.38;6279807;28;20688;-93
2024/01/24 10:47:52;;;;;;;6.30;5.95;;;;;;;-145.48;100.00;64539.38;6284431;28;20052;-93
2024/01/24 10:50:57;;;;;;;7.25;6.85;;;;;;;-145.48;100.00;64539.38;6282121;28;20041;-93
2024/01/24 10:54:01;;;;;;;8.07;7.65;;;;;;;-145.48;100.00;64539.38;6287182;28;20482;-93
2024/01/24 10:57:06;;;;;;;6.22;5.93;;;;;;;-145.48;100.00;64539.38;6292579;28;20072;-92
2024/01/24 11:00:15;;;;;;;20.52;6.13;;;;;;;-145.48;100.00;64539.38;6288232;28;20036;-93
2024/01/24 11:03:18;;;;;;;7.43;6.80;;;;;;;-145.48;100.00;64539.38;6298265;28;20637;-94
2024/01/24 11:06:24;;;;;;;7.85;7.38;;;;;;;-145.48;100.00;64539.38;6283538;28;20063;-92
2024/01/24 11:09:35;;;;;;;11.00;8.13;;;;;;;-145.48;100.00;64539.38;6280195;28;20679;-94
2024/01/24 11:12:37;;;;;;;9.52;8.60;;;;;;;-145.48;100.00;64539.38;6279746;28;20067;-91
2024/01/24 11:15:40;;;;;;;8.25;6.85;;;;;;;-145.48;100.00;64539.38;6280669;28;20569;-91
2024/01/24 11:18:43;;;;;;;5.90;5.70;;;;;;;-145.48;100.00;64539.38;6305238;28;20052;-93
2024/01/24 11:21:45;;;;;;;7.97;7.03;;;;;;;-145.48;100.00;64539.38;6284078;28;20051;-91
2024/01/24 11:24:48;;;;;;;7.65;7.15;;;;;;;-145.48;100.00;64539.38;6278347;28;20147;-91
2024/01/24 11:27:57;;;;;;;6.43;6.15;;;;;;;-145.48;100.00;64539.38;6282687;28;20203;-91
2024/01/24 11:31:00;;;;;;;6.13;5.93;;;;;;;-145.48;100.00;64539.38;6288131;28;20163;-91
2024/01/24 11:34:13;;;;;;;6.43;6.13;;;;;;;-145.48;100.00;64539.38;6274019;28;20048;-91
2024/01/24 11:37:15;;;;;;;6.43;6.03;;;;;;;-145.48;100.00;64539.38;6285762;28;20391;-92
2024/01/24 11:40:17;;;;;;;9.15;8.07;;;;;;;-145.48;100.00;64539.38;6288172;28;20053;-91
2024/01/24 11:43:30;;;;;;;8.95;8.15;;;;;;;-145.48;100.00;64539.38;6278924;28;20033;-90
2024/01/24 11:46:38;;;;;;;8.75;7.97;;;;;;;-145.48;100.00;64539.38;6286266;28;20037;-91
2024/01/24 11:49:40;;;;;;;6.25;6.03;;;;;;;-145.48;100.00;64539.38;6285097;28;20055;-93
2024/01/24 11:52:44;;;;;;;9.20;6.28;;;;;;;-145.48;100.00;64539.38;6277447;28;20052;-93
2024/01/24 11:55:55;;;;;;;7.45;7.05;;;;;;;-145.48;100.00;64539.38;6285476;28;20161;-92
2024/01/24 11:58:57;;;;;;;7.05;6.30;;;;;;;-145.48;100.00;64539.38;6288206;28;20514;-92
2024/01/24 12:01:59;;;;;;;6.90;6.50;;;;;;;-145.48;100.00;64539.38;6276440;28;20510;-93
2024/01/24 12:05:03;;;;;;;6.28;6.03;;;;;;;-145.48;100.00;64539.38;6276618;28;20043;-93
2024/01/24 12:08:07;;;;;;;6.30;6.00;;;;;;;-145.48;100.00;64539.38;6272779;28;20033;-93
2024/01/24 12:11:09;;;;;;;6.80;6.20;;;;;;;-145.48;100.00;64539.38;6281001;28;20029;-92
2024/01/24 12:14:12;;;;;;;8.32;7.57;;;;;;;-145.48;100.00;64539.38;6279499;28;20038;-93
2024/01/24 12:17:15;;;;;;;7.28;6.88;;;;;;;-145.48;100.00;64539.38;6288052;28;20037;-93
2024/01/24 12:20:17;;;;;;;9.52;6.75;;;;;;;-145.48;100.00;64539.38;6286891;28;20509;-95
2024/01/24 12:23:20;;;;;;;6.85;6.57;;;;;;;-145.48;100.00;64539.38;6280905;28;20122;-92
2024/01/24 12:26:22;;;;;;;17.13;6.93;;;;;;;-145.48;100.00;64539.38;6276389;28;20159;-93
2024/01/24 12:29:26;;;;;;;8.10;7.28;;;;;;;-145.48;100.00;64539.38;6280745;28;20110;-93
2024/01/24 12:32:28;;;;;;;5.20;5.05;;;;;;;-145.48;100.00;64539.38;6268960;28;20041;-92
2024/01/24 12:35:32;;;;;;;6.80;6.28;;;;;;;-145.48;100.00;64539.38;6282058;28;20131;-95
2024/01/24 12:38:35;;;;;;;8.65;8.13;;;;;;;-145.48;100.00;64539.38;6287837;28;20041;-93
2024/01/24 12:41:40;;;;;;;7.55;7.03;;;;;;;-145.48;100.00;64539.38;6281046;28;20075;-93
2024/01/24 12:44:42;;;;;;;7.10;6.68;;;;;;;-145.48;100.00;64539.38;6281474;28;20049;-92
2024/01/24 12:47:45;;;;;;;6.65;6.32;;;;;;;-145.48;100.00;64539.38;6280451;28;20417;-90
2024/01/24 12:50:47;;;;;;;8.27;7.20;;;;;;;-145.48;100.00;64539.38;6274799;28;20044;-90
2024/01/24 12:53:49;;;;;;;7.30;6.90;;;;;;;-145.48;100.00;64539.38;6276192;28;20041;-92
2024/01/24 12:56:52;;;;;;;5.93;5.57;;;;;;;-145.48;100.00;64539.38;6289028;28;20418;-92
2024/01/24 12:59:57;;;;;;;7.82;6.82;;;;;;;-145.48;100.00;64539.38;6283618;28;20146;-90
2024/01/24 13:02:59;;;;;;;11.43;7.13;;;;;;;-145.48;100.00;64539.38;6281766;28;20182;-90
2024/01/24 13:06:02;;;;;;;15.10;7.88;;;;;;;-145.48;100.00;64539.38;6283283;28;20042;-91
2024/01/24 13:09:05;;;;;;;10.85;6.72;;;;;;;-145.48;100.00;64539.38;6283663;28;20052;-90
2024/01/24 13:12:07;;;;;;;6.78;6.35;;;;;;;-145.48;100.00;64539.38;6277385;28;20032;-88
2024/01/24 13:15:10;;;;;;;22.77;6.78;;;;;;;-145.48;100.00;64539.38;6284437;28;20125;-88
2024/01/24 13:18:13;;;;;;;9.27;7.55;;;;;;;-145.48;100.00;64539.38;6281002;28;20040;-90
2024/01/24 13:21:15;;;;;;;7.30;6.60;;;;;;;-145.48;100.00;64539.38;6286635;28;20131;-91
2024/01/24 13:24:17;;;;;;;6.70;6.35;;;;;;;-145.48;100.00;64539.38;6286281;28;20067;-89
2024/01/24 13:27:19;;;;;;;6.20;6.00;;;;;;;-145.48;100.00;64539.38;6283914;28;20045;-87
2024/01/24 13:30:26;;;;;;;7.20;6.55;;;;;;;-145.48;100.00;64539.38;6285209;28;20403;-96
2024/01/24 13:33:40;;;;;;;7.40;6.80;;;;;;;-145.48;100.00;64539.38;6286167;28;20091;-95
2024/01/24 13:36:44;;;;;;;7.93;7.40;;;;;;;-145.48;100.00;64539.38;6289978;28;20044;-92
2024/01/24 13:39:47;;;;;;;6.82;6.28;;;;;;;-145.48;100.00;64539.38;6287619;28;20533;-93
2024/01/24 13:42:50;;;;;;;7.43;7.13;;;;;;;-145.48;100.00;64539.38;6285614;28;20797;-91
2024/01/24 13:45:52;;;;;;;7.53;7.10;;;;;;;-145.48;100.00;64539.38;6291210;28;20036;-89
2024/01/24 13:48:55;;;;;;;5.55;5.35;;;;;;;-145.48;100.00;64539.38;6285379;28;20189;-90
2024/01/24 13:51:57;;;;;;;7.03;6.72;;;;;;;-145.48;100.00;64539.38;6288077;28;20044;-93